Date,TemperatureHighF,TemperatureAvgF,TemperatureLowF,DewpointHighF,DewpointAvgF,DewpointLowF,HumidityHigh,HumidityAvg,HumidityLow,PressureMaxIn,PressureMinIn,WindSpeedMaxMPH,WindSpeedAvgMPH,GustSpeedMaxMPH,PrecipitationSumIn
2013-2-1,62.5,46.9,33.0,22.1,17.4,13.6,45,32,20,30.26,30.09,10,4,14,0.00
2013-2-2,65.3,47.7,31.0,22.9,16.5,11.4,47,30,18,30.35,30.14,14,5,21,0.00
2013-2-3,63.4,50.8,40.2,32.5,19.2,11.6,48,30,19,30.19,29.87,19,4,28,0.00
2013-2-4,63.5,52.0,41.2,32.5,28.7,24.4,53,41,30,29.98,29.84,14,6,22,0.00
2013-2-5,66.8,51.1,35.5,31.6,25.7,20.5,63,40,22,30.04,29.82,13,5,18,0.00
2013-2-6,66.3,53.6,41.1,32.4,29.1,23.2,59,40,26,29.92,29.74,14,6,25,0.00
2013-2-7,65.2,51.6,37.2,32.2,25.6,21.0,65,39,20,30.03,29.88,19,6,27,0.00
2013-2-8,67.4,56.0,49.9,28.3,22.6,10.9,36,28,18,29.95,29.69,25,14,37,0.00
2013-2-9,56.8,46.9,33.5,25.5,17.3,11.8,45,31,23,29.92,29.60,34,14,48,0.00
2013-2-10,53.4,39.3,27.1,17.8,13.7,7.6,59,37,20,30.06,29.88,11,4,19,0.00
2013-2-11,58.3,43.0,28.8,28.1,14.3,7.5,69,32,18,30.01,29.81,21,6,36,0.00
2013-2-12,49.2,38.4,31.4,30.0,17.2,2.6,83,48,18,30.19,29.90,16,8,25,0.00
2013-2-13,54.9,39.4,26.2,14.5,11.5,8.4,50,33,19,30.23,30.03,14,7,22,0.00
2013-2-14,60.1,45.1,29.8,19.8,14.5,6.7,43,30,20,30.16,29.95,12,6,19,0.00
2013-2-15,58.0,43.4,30.8,23.6,17.1,11.7,47,36,19,30.33,30.04,13,5,20,0.00
2013-2-16,61.4,44.4,28.8,19.5,14.5,9.4,52,32,16,30.42,30.08,9,4,13,0.00
2013-2-17,67.7,51.0,32.2,15.6,11.0,5.1,32,21,12,30.08,29.70,18,6,27,0.00
2013-2-18,64.0,51.4,37.0,15.7,11.2,7.2,31,20,13,29.98,29.76,13,5,25,0.00
2013-2-19,58.0,48.6,39.0,43.4,22.6,5.2,88,44,16,29.97,29.69,15,8,23,0.08
2013-2-20,58.6,46.4,31.7,40.7,29.3,19.6,90,56,22,29.73,29.43,27,13,45,0.00
2013-2-21,50.0,37.8,28.0,24.2,21.9,19.1,77,54,33,30.02,29.70,23,9,44,0.00
2013-2-22,53.5,40.6,28.0,23.9,20.1,16.0,71,46,26,30.06,29.87,21,8,33,0.00
2013-2-23,60.3,44.9,26.2,23.2,16.6,8.7,53,33,20,30.10,29.70,13,6,24,0.00
2013-2-24,56.0,41.4,26.9,24.5,17.9,8.4,61,40,22,29.90,29.55,32,11,50,0.00
2013-2-25,53.2,37.3,21.8,16.1,11.9,8.0,65,38,19,30.17,29.91,14,7,23,0.00
2013-2-26,63.9,44.0,28.7,19.1,10.5,1.8,47,28,11,29.99,29.74,25,8,40,0.00
2013-2-27,53.1,40.8,25.6,10.6,3.5,-2.5,31,21,13,30.27,29.97,17,7,24,0.00
2013-2-28,57.2,42.1,27.8,13.5,7.1,1.3,37,25,14,30.34,30.17,11,6,24,0.00